Nearby METAR Reports

 

LBGO - Gorna Orechovist, Bulgaria
Distance from station: NE 57km
Updated: 20/04/2021 19:30
Clear
Clear
 Wind from N
Wind: N 4 km/h
Temperature: 13°C
Dew Point: 6°C
Humidity: 63%
Barometer: 1012 hPa
Clouds: Clear
Visibility: 10 km
2021/04/20 16:30 LBGO 201630Z AUTO 01002KT 9999 NCD 13/06 Q1012